Time;durP1;ratioP1;P1;durP2;ratioP2;P2;SDS_P1;SDS_P2;PMS_P1;PMS_P2;Temp;Humidity;BMP_temperature;BMP_pressure;BME280_temperature;BME280_humidity;BME280_pressure;Samples;Min_cycle;Max_cycle;Signal;HPM_P1;HPM_P2
2023/09/28 00:01:13;;;;;;;12.63;11.52;;;18.90;99.90;;;;;;6150641;23;20380;-92
2023/09/28 00:03:39;;;;;;;13.20;12.00;;;19.10;99.90;;;;;;6151317;23;20374;-91
2023/09/28 00:06:05;;;;;;;12.50;11.38;;;19.60;99.90;;;;;;6151282;23;20372;-91
2023/09/28 00:08:32;;;;;;;11.90;10.90;;;19.10;99.90;;;;;;6151415;23;20397;-93
2023/09/28 00:10:58;;;;;;;12.57;11.30;;;19.30;99.90;;;;;;6152018;23;20680;-94
2023/09/28 00:13:24;;;;;;;12.80;11.70;;;19.10;99.90;;;;;;6154620;23;20365;-93
2023/09/28 00:15:50;;;;;;;13.17;12.03;;;19.10;99.90;;;;;;6153649;23;20512;-93
2023/09/28 00:18:16;;;;;;;13.02;11.90;;;19.00;99.90;;;;;;6154364;23;20381;-91
2023/09/28 00:20:41;;;;;;;12.90;11.77;;;19.10;99.90;;;;;;6154614;23;20373;-93
2023/09/28 00:23:07;;;;;;;12.25;11.15;;;19.00;99.90;;;;;;6155001;23;20997;-93
2023/09/28 00:25:32;;;;;;;12.27;11.07;;;19.40;99.90;;;;;;6154897;23;20384;-91
2023/09/28 00:27:58;;;;;;;12.05;10.85;;;19.40;99.90;;;;;;6154660;23;20695;-91
2023/09/28 00:30:26;;;;;;;12.37;11.10;;;19.20;99.90;;;;;;6154314;23;20397;-93
2023/09/28 00:32:57;;;;;;;12.45;11.25;;;18.90;99.90;;;;;;6154039;23;20732;-93
2023/09/28 00:35:25;;;;;;;12.70;11.60;;;19.40;99.90;;;;;;6153948;23;20683;-92
2023/09/28 00:37:51;;;;;;;12.82;11.55;;;19.40;99.90;;;;;;6154129;23;20397;-93
2023/09/28 00:40:27;;;;;;;12.20;11.20;;;19.20;99.90;;;;;;6154291;23;20381;-93
2023/09/28 00:42:53;;;;;;;11.80;10.70;;;19.00;99.90;;;;;;6154555;23;20412;-93
2023/09/28 00:45:21;;;;;;;12.10;11.07;;;19.10;99.90;;;;;;6154060;23;20404;-92
2023/09/28 00:47:52;;;;;;;10.57;9.63;;;19.30;99.90;;;;;;6154282;23;20509;-93
2023/09/28 00:50:18;;;;;;;10.93;9.88;;;19.40;99.90;;;;;;6154127;23;20393;-91
2023/09/28 00:52:47;;;;;;;10.80;9.77;;;19.20;99.90;;;;;;6153982;23;20369;-94
2023/09/28 00:55:15;;;;;;;10.82;9.43;;;18.80;99.90;;;;;;6153886;23;20369;-93
2023/09/28 00:57:46;;;;;;;10.10;8.97;;;19.10;99.90;;;;;;6154092;23;20389;-94
2023/09/28 01:00:26;;;;;;;10.40;8.70;;;19.40;99.90;;;;;;6153834;23;20373;-92
2023/09/28 01:02:54;;;;;;;10.07;8.95;;;18.90;99.90;;;;;;6154307;23;20373;-94
2023/09/28 01:05:20;;;;;;;9.07;7.93;;;19.30;99.90;;;;;;6154495;23;20421;-94
2023/09/28 01:07:47;;;;;;;8.27;7.47;;;18.80;99.90;;;;;;6153936;23;20365;-92
2023/09/28 01:10:14;;;;;;;7.75;6.95;;;19.10;99.90;;;;;;6153963;23;20420;-93
2023/09/28 01:12:41;;;;;;;8.10;7.30;;;19.00;99.90;;;;;;6129285;23;20365;-93
2023/09/28 01:15:11;;;;;;;7.63;6.82;;;18.80;99.90;;;;;;6154040;23;20913;-92
2023/09/28 01:17:40;;;;;;;7.82;6.55;;;18.70;99.90;;;;;;6153951;23;20381;-92
2023/09/28 01:23:03;;;;;;;6.88;6.28;;;18.60;99.90;;;;;;6128001;23;20374;-92
2023/09/28 01:25:28;;;;;;;6.93;6.22;;;18.70;99.90;;;;;;6152229;23;20423;-94
2023/09/28 01:27:54;;;;;;;6.97;6.28;;;18.60;99.90;;;;;;6152539;23;20424;-92
2023/09/28 01:30:20;;;;;;;7.23;6.53;;;18.90;99.90;;;;;;6152941;23;20397;-93
2023/09/28 01:32:46;;;;;;;7.40;6.32;;;19.10;99.90;;;;;;6152501;23;20365;-92
2023/09/28 01:35:12;;;;;;;6.50;5.90;;;19.00;99.90;;;;;;6128155;23;20886;-93
2023/09/28 01:38:09;;;;;;;6.90;6.03;;;19.10;99.90;;;;;;6152838;23;20677;-92
2023/09/28 01:40:35;;;;;;;7.03;6.40;;;18.60;99.90;;;;;;6152522;23;20409;-95
2023/09/28 01:43:01;;;;;;;7.97;6.13;;;18.50;99.90;;;;;;6152150;23;20369;-91
2023/09/28 01:45:26;;;;;;;6.75;5.80;;;18.50;99.90;;;;;;6152795;23;20405;-91
2023/09/28 01:47:52;;;;;;;6.60;6.00;;;18.60;99.90;;;;;;6152892;23;20369;-93
2023/09/28 01:50:18;;;;;;;7.80;6.30;;;18.90;99.90;;;;;;6128125;23;20478;-94
2023/09/28 01:52:44;;;;;;;6.85;5.93;;;18.40;99.90;;;;;;6152714;23;20380;-93
2023/09/28 01:55:09;;;;;;;6.70;6.10;;;19.00;99.90;;;;;;6152299;23;20381;-92
2023/09/28 01:57:35;;;;;;;6.77;5.87;;;19.20;99.90;;;;;;6152611;23;20377;-93
2023/09/28 02:00:05;;;;;;;7.43;5.60;;;18.70;99.90;;;;;;6152417;23;20369;-92
2023/09/28 02:02:34;;;;;;;6.75;5.90;;;18.30;99.90;;;;;;6152336;23;20771;-93
2023/09/28 02:05:01;;;;;;;7.37;5.83;;;18.30;99.90;;;;;;6152621;23;20376;-92
2023/09/28 02:07:26;;;;;;;6.93;6.22;;;17.80;99.90;;;;;;6152743;23;20369;-91
2023/09/28 02:09:52;;;;;;;7.40;6.30;;;18.60;99.90;;;;;;6152956;23;20400;-91
2023/09/28 02:12:17;;;;;;;7.00;6.30;;;18.50;99.90;;;;;;6152497;23;20373;-93
2023/09/28 02:14:43;;;;;;;8.40;6.47;;;18.60;99.90;;;;;;6152907;23;20393;-91
2023/09/28 02:17:09;;;;;;;7.68;6.43;;;18.20;99.90;;;;;;6152082;23;20424;-92
2023/09/28 02:19:35;;;;;;;7.15;6.45;;;18.10;99.90;;;;;;6152327;23;20584;-92
2023/09/28 02:22:02;;;;;;;6.80;6.10;;;18.10;99.90;;;;;;6152682;23;20751;-94
2023/09/28 02:24:27;;;;;;;7.28;6.25;;;18.50;99.90;;;;;;6152285;23;20372;-93
2023/09/28 02:26:54;;;;;;;8.63;6.80;;;18.00;99.90;;;;;;6152391;23;20378;-94
2023/09/28 02:29:20;;;;;;;6.90;6.30;;;18.70;99.90;;;;;;6152178;23;21143;-91
2023/09/28 02:31:46;;;;;;;7.10;6.40;;;18.40;99.90;;;;;;6152477;23;20377;-91
2023/09/28 02:34:11;;;;;;;7.30;6.60;;;18.30;99.90;;;;;;6152113;23;20377;-92
2023/09/28 02:36:37;;;;;;;7.70;6.60;;;18.40;99.90;;;;;;6151271;23;20362;-92
2023/09/28 02:39:07;;;;;;;7.77;6.47;;;18.50;99.90;;;;;;6152373;23;20365;-94
2023/09/28 02:41:33;;;;;;;7.93;6.40;;;18.00;99.90;;;;;;6151684;23;20490;-93
2023/09/28 02:43:58;;;;;;;8.95;6.78;;;18.10;99.90;;;;;;6126802;23;20400;-92
2023/09/28 02:46:27;;;;;;;7.60;6.90;;;18.00;99.90;;;;;;6151952;23;20435;-93
2023/09/28 02:48:53;;;;;;;7.50;6.70;;;17.90;99.90;;;;;;6151917;23;20393;-93
2023/09/28 02:51:19;;;;;;;7.90;6.85;;;17.70;99.90;;;;;;6151878;23;20424;-92
2023/09/28 02:53:44;;;;;;;8.10;6.97;;;18.00;99.90;;;;;;6151770;23;20838;-93
2023/09/28 02:56:12;;;;;;;8.00;6.60;;;18.00;99.90;;;;;;6151438;23;20361;-93
2023/09/28 02:58:38;;;;;;;9.43;7.20;;;18.20;99.90;;;;;;6126968;23;20424;-93
2023/09/28 03:01:04;;;;;;;7.78;6.97;;;18.00;99.90;;;;;;6151420;23;20476;-93
2023/09/28 03:03:30;;;;;;;8.35;7.38;;;17.80;99.90;;;;;;6151708;23;20403;-92
2023/09/28 03:05:56;;;;;;;8.98;8.18;;;18.10;99.90;;;;;;6152181;23;20771;-92
2023/09/28 03:08:22;;;;;;;8.93;8.03;;;18.00;99.90;;;;;;6151744;23;20412;-93
2023/09/28 03:10:48;;;;;;;9.40;7.40;;;17.80;99.90;;;;;;6151670;23;20703;-93
2023/09/28 03:13:13;;;;;;;8.98;8.00;;;17.60;99.90;;;;;;6151581;23;20756;-92
2023/09/28 03:15:41;;;;;;;9.38;8.35;;;17.90;99.90;;;;;;6151783;23;20827;-92
2023/09/28 03:18:07;;;;;;;9.07;8.18;;;17.90;99.90;;;;;;6151449;23;20379;-91
2023/09/28 03:20:33;;;;;;;9.65;8.18;;;17.40;99.90;;;;;;6127446;23;20372;-91
2023/09/28 03:23:00;;;;;;;9.68;8.75;;;17.30;99.90;;;;;;6127328;23;20374;-92
2023/09/28 03:25:25;;;;;;;10.38;8.50;;;17.70;99.90;;;;;;6127120;23;20366;-92
2023/09/28 03:27:53;;;;;;;11.20;8.70;;;17.70;99.90;;;;;;6151848;23;20377;-93
2023/09/28 03:30:21;;;;;;;9.82;8.38;;;17.60;99.90;;;;;;6151907;23;20408;-92
2023/09/28 03:32:47;;;;;;;9.38;8.35;;;17.50;99.90;;;;;;6151595;23;20365;-92
2023/09/28 03:35:13;;;;;;;10.60;8.40;;;17.40;99.90;;;;;;6151582;23;20424;-93
2023/09/28 03:37:40;;;;;;;9.95;8.95;;;17.10;99.90;;;;;;6151436;23;20370;-91
2023/09/28 03:40:10;;;;;;;9.65;8.73;;;17.20;99.90;;;;;;6151788;23;20365;-92
2023/09/28 03:43:02;;;;;;;10.27;9.15;;;17.00;99.90;;;;;;6151785;23;20401;-91
2023/09/28 03:45:28;;;;;;;9.50;8.60;;;16.90;99.90;;;;;;6122048;23;20383;-92
2023/09/28 03:47:54;;;;;;;10.80;9.20;;;17.30;99.90;;;;;;6151463;23;20373;-91
2023/09/28 03:50:21;;;;;;;9.73;8.60;;;17.30;99.90;;;;;;6151697;23;20397;-92
2023/09/28 03:52:47;;;;;;;10.18;9.10;;;16.90;99.90;;;;;;6151581;23;20437;-93
2023/09/28 03:55:14;;;;;;;11.02;9.60;;;16.70;99.90;;;;;;6151394;23;20401;-92
2023/09/28 03:57:44;;;;;;;11.30;9.60;;;16.90;99.90;;;;;;6152205;23;20454;-92
2023/09/28 04:00:12;;;;;;;10.80;9.30;;;16.70;99.90;;;;;;6152276;23;20391;-92
2023/09/28 04:02:44;;;;;;;10.93;9.88;;;16.60;99.90;;;;;;6151822;23;20370;-93
2023/09/28 04:05:10;;;;;;;10.10;8.80;;;16.70;99.90;;;;;;6151698;23;20408;-93
2023/09/28 04:07:36;;;;;;;11.05;9.05;;;17.10;99.90;;;;;;6151367;23;20386;-92
2023/09/28 04:10:03;;;;;;;12.60;10.07;;;17.30;99.90;;;;;;6151263;23;20867;-92
2023/09/28 04:12:29;;;;;;;11.52;9.50;;;16.70;99.90;;;;;;6151858;23;20758;-93
2023/09/28 04:14:55;;;;;;;10.13;9.02;;;16.70;99.90;;;;;;6151873;23;20393;-92
2023/09/28 04:17:21;;;;;;;9.93;9.00;;;17.10;99.90;;;;;;6151434;23;20448;-92
2023/09/28 04:19:47;;;;;;;10.90;9.45;;;16.70;99.90;;;;;;6127433;23;20373;-91
2023/09/28 04:22:13;;;;;;;10.85;9.70;;;16.70;99.90;;;;;;6151686;23;20457;-91
2023/09/28 04:24:39;;;;;;;11.70;9.20;;;16.80;99.90;;;;;;6151485;23;20392;-94
2023/09/28 04:27:05;;;;;;;11.03;8.33;;;16.60;99.90;;;;;;6150874;23;20456;-93
2023/09/28 04:29:32;;;;;;;8.90;7.43;;;17.00;99.90;;;;;;6151615;23;20453;-91
2023/09/28 04:31:58;;;;;;;10.27;7.05;;;16.90;99.90;;;;;;6151394;23;20373;-92
2023/09/28 04:34:24;;;;;;;9.63;6.70;;;16.90;99.90;;;;;;6151577;23;20370;-93
2023/09/28 04:36:51;;;;;;;10.10;7.22;;;17.10;99.90;;;;;;6151870;23;20444;-92
2023/09/28 04:39:17;;;;;;;11.18;7.50;;;16.80;99.90;;;;;;6151757;23;20416;-92
2023/09/28 04:41:43;;;;;;;11.77;7.70;;;16.80;99.90;;;;;;6151443;23;20369;-93
2023/09/28 04:44:09;;;;;;;12.20;8.07;;;16.80;99.90;;;;;;6151351;23;20381;-93
2023/09/28 04:46:35;;;;;;;10.00;7.77;;;16.90;99.90;;;;;;6150914;23;20381;-93
2023/09/28 04:49:01;;;;;;;11.63;8.00;;;17.20;99.90;;;;;;6150854;23;20393;-93
2023/09/28 04:51:28;;;;;;;10.85;7.97;;;17.20;99.90;;;;;;6151465;23;20379;-93
2023/09/28 04:53:54;;;;;;;10.45;7.95;;;16.80;99.90;;;;;;6151603;23;20374;-93
2023/09/28 04:56:20;;;;;;;10.35;7.78;;;17.10;99.90;;;;;;6151203;23;20369;-92
2023/09/28 04:58:46;;;;;;;9.50;7.60;;;17.00;99.90;;;;;;6152422;23;20372;-92
2023/09/28 05:01:11;;;;;;;10.10;7.30;;;17.10;99.90;;;;;;6153243;23;20373;-93
2023/09/28 05:03:37;;;;;;;10.60;7.47;;;17.10;99.90;;;;;;6153585;23;20423;-93
2023/09/28 05:06:04;;;;;;;11.37;6.70;;;16.90;99.90;;;;;;6153254;23;20373;-92
2023/09/28 05:08:31;;;;;;;9.30;6.80;;;17.10;99.90;;;;;;6152836;23;20465;-93
2023/09/28 05:10:57;;;;;;;10.57;7.20;;;16.80;99.90;;;;;;6128889;23;20369;-93
2023/09/28 05:13:29;;;;;;;14.47;7.60;;;16.60;99.90;;;;;;6153281;23;20380;-93
2023/09/28 05:15:55;;;;;;;12.57;7.03;;;16.70;99.90;;;;;;6153400;23;20470;-93
2023/09/28 05:18:20;;;;;;;13.33;6.50;;;16.50;99.90;;;;;;6128779;23;20374;-94
2023/09/28 05:20:46;;;;;;;13.60;6.35;;;16.70;99.90;;;;;;6153455;23;20373;-93
2023/09/28 05:23:12;;;;;;;11.97;5.50;;;16.40;99.90;;;;;;6153644;23;20464;-93
2023/09/28 05:25:37;;;;;;;10.32;5.32;;;16.50;99.90;;;;;;6152929;23;20365;-93
2023/09/28 05:28:04;;;;;;;12.37;5.30;;;16.60;99.90;;;;;;6153218;23;20755;-92
2023/09/28 05:30:30;;;;;;;16.67;5.05;;;16.30;99.90;;;;;;6153036;23;20425;-92
2023/09/28 05:32:55;;;;;;;12.70;4.47;;;16.20;99.90;;;;;;6153202;23;20372;-94
2023/09/28 05:35:22;;;;;;;16.25;4.35;;;16.20;99.90;;;;;;6153143;23;20373;-92
2023/09/28 05:37:49;;;;;;;16.40;4.72;;;16.50;99.90;;;;;;6153209;23;20369;-92
2023/09/28 05:40:15;;;;;;;15.68;4.05;;;16.50;99.90;;;;;;6153035;23;20888;-94
2023/09/28 05:42:41;;;;;;;15.50;3.75;;;16.40;99.90;;;;;;6152973;23;20381;-93
2023/09/28 05:45:08;;;;;;;14.30;3.77;;;16.80;99.90;;;;;;6152636;23;20369;-93
2023/09/28 05:47:34;;;;;;;16.85;4.60;;;16.30;99.90;;;;;;6152674;23;20845;-93
2023/09/28 05:50:01;;;;;;;18.65;4.78;;;16.70;99.90;;;;;;6153041;23;20718;-93
2023/09/28 05:52:27;;;;;;;14.18;4.35;;;16.70;99.90;;;;;;6151629;23;20373;-92
2023/09/28 05:54:53;;;;;;;18.00;5.25;;;16.40;99.90;;;;;;6152806;23;20369;-94
2023/09/28 05:57:22;;;;;;;13.13;4.30;;;16.60;99.90;;;;;;6152116;23;20376;-92
2023/09/28 05:59:48;;;;;;;16.20;3.70;;;16.70;99.90;;;;;;6152981;23;20360;-93
2023/09/28 06:02:15;;;;;;;16.02;3.42;;;16.80;99.90;;;;;;6151837;23;20423;-91
2023/09/28 06:04:41;;;;;;;20.13;4.22;;;16.60;99.90;;;;;;6152470;23;20381;-93
2023/09/28 06:07:07;;;;;;;19.90;3.58;;;17.10;99.90;;;;;;6152304;23;20380;-93
2023/09/28 06:09:33;;;;;;;19.95;3.53;;;16.60;99.90;;;;;;6151504;23;20393;-93
2023/09/28 06:12:00;;;;;;;17.13;2.90;;;16.70;99.90;;;;;;6152093;23;20444;-93
2023/09/28 06:14:25;;;;;;;18.63;3.30;;;16.40;99.90;;;;;;6152256;23;20380;-93
2023/09/28 06:16:51;;;;;;;18.92;3.50;;;16.80;99.90;;;;;;6152404;23;20456;-93
2023/09/28 06:19:17;;;;;;;20.45;3.30;;;16.70;99.90;;;;;;6152618;23;20374;-92
2023/09/28 06:21:42;;;;;;;24.03;3.90;;;16.60;99.90;;;;;;6152654;23;20370;-93
2023/09/28 06:24:08;;;;;;;23.23;3.55;;;16.30;99.90;;;;;;6152333;23;20388;-94
2023/09/28 06:26:34;;;;;;;22.97;3.83;;;16.30;99.90;;;;;;6127793;23;20376;-91
2023/09/28 06:29:00;;;;;;;23.70;3.30;;;16.30;99.90;;;;;;6152207;23;20393;-93
2023/09/28 06:31:29;;;;;;;20.73;3.65;;;16.60;99.90;;;;;;6127678;23;20366;-92
2023/09/28 06:33:54;;;;;;;23.58;4.47;;;16.30;99.90;;;;;;6152287;23;20457;-93
2023/09/28 06:36:20;;;;;;;24.25;3.88;;;17.50;99.90;;;;;;6151553;23;20416;-95
2023/09/28 06:38:47;;;;;;;21.42;3.75;;;16.50;99.90;;;;;;6151931;23;20460;-94
2023/09/28 06:41:13;;;;;;;21.17;4.03;;;17.00;99.90;;;;;;6151141;23;20454;-94
2023/09/28 06:43:39;;;;;;;20.70;3.78;;;17.10;99.90;;;;;;6152580;23;20383;-93
2023/09/28 06:46:05;;;;;;;23.50;3.25;;;17.20;99.90;;;;;;6151652;23;20397;-93
2023/09/28 06:48:33;;;;;;;22.73;4.20;;;17.00;99.90;;;;;;6151179;23;20464;-94
2023/09/28 06:51:01;;;;;;;25.33;3.87;;;17.50;99.90;;;;;;6150912;23;20369;-94
2023/09/28 06:53:27;;;;;;;21.92;3.42;;;17.10;99.90;;;;;;6126565;23;20377;-95
2023/09/28 06:55:54;;;;;;;21.87;3.63;;;17.50;99.90;;;;;;6151366;23;20377;-95
2023/09/28 06:58:20;;;;;;;22.67;3.77;;;17.30;99.90;;;;;;6151350;23;20366;-94
2023/09/28 07:00:46;;;;;;;21.80;3.60;;;17.60;99.90;;;;;;6151436;23;20410;-92
2023/09/28 07:03:13;;;;;;;22.83;3.53;;;17.40;99.90;;;;;;6151941;23;20456;-93
2023/09/28 07:05:39;;;;;;;22.13;3.78;;;17.40;99.90;;;;;;6151153;23;20369;-93
2023/09/28 07:08:06;;;;;;;25.40;3.92;;;17.40;99.90;;;;;;6151314;23;20376;-94
2023/09/28 07:10:36;;;;;;;21.80;4.30;;;17.70;99.90;;;;;;6151205;23;20459;-93
2023/09/28 07:13:05;;;;;;;21.85;4.18;;;17.50;99.90;;;;;;6152291;23;20373;-93
2023/09/28 07:15:31;;;;;;;23.42;3.60;;;17.50;99.90;;;;;;6151375;23;20373;-94
2023/09/28 07:17:57;;;;;;;23.10;3.75;;;17.50;99.90;;;;;;6125458;23;20382;-93
2023/09/28 07:20:26;;;;;;;22.70;3.85;;;17.60;99.90;;;;;;6120064;23;20379;-93
2023/09/28 07:22:51;;;;;;;24.15;4.40;;;17.60;99.90;;;;;;6120801;23;20845;-93
2023/09/28 07:25:19;;;;;;;21.03;4.17;;;17.70;99.90;;;;;;6122442;23;20386;-93
2023/09/28 07:27:45;;;;;;;23.33;4.10;;;17.70;99.90;;;;;;6121758;23;20375;-94
2023/09/28 07:30:12;;;;;;;23.00;3.75;;;17.80;99.90;;;;;;6122298;23;20410;-95
2023/09/28 07:32:40;;;;;;;23.27;4.00;;;17.90;99.90;;;;;;6096645;23;20375;-94
2023/09/28 07:35:09;;;;;;;21.20;4.43;;;17.90;99.90;;;;;;6121855;23;20864;-92
2023/09/28 07:37:35;;;;;;;25.00;4.20;;;18.00;99.90;;;;;;6096716;23;20430;-92
2023/09/28 07:40:01;;;;;;;22.58;4.25;;;18.00;99.90;;;;;;6095864;23;20458;-93
2023/09/28 07:42:27;;;;;;;23.67;4.00;;;18.50;99.90;;;;;;6096918;23;20458;-94
2023/09/28 07:44:53;;;;;;;21.40;3.88;;;19.00;99.90;;;;;;6120962;23;20410;-92
2023/09/28 07:47:19;;;;;;;22.13;3.73;;;18.30;99.90;;;;;;6121705;23;20383;-92
2023/09/28 07:49:45;;;;;;;21.65;3.58;;;18.40;99.90;;;;;;6121403;23;20486;-94
2023/09/28 07:52:11;;;;;;;24.13;4.18;;;18.40;99.90;;;;;;6121281;23;20371;-93
2023/09/28 07:54:37;;;;;;;23.43;3.80;;;18.80;99.90;;;;;;6121578;23;20374;-93
2023/09/28 07:57:07;;;;;;;22.00;3.60;;;18.70;99.90;;;;;;6121695;23;20410;-91
2023/09/28 07:59:34;;;;;;;18.73;3.40;;;18.90;99.90;;;;;;6121875;23;20398;-92
2023/09/28 08:02:00;;;;;;;21.73;3.50;;;18.90;99.90;;;;;;6121426;23;20398;-93
2023/09/28 08:04:26;;;;;;;20.40;3.63;;;18.80;99.90;;;;;;6097537;23;20410;-93
2023/09/28 08:06:52;;;;;;;19.03;3.20;;;18.80;99.90;;;;;;6096928;23;20367;-93
2023/09/28 08:09:19;;;;;;;21.90;3.40;;;19.10;99.90;;;;;;6121572;23;20486;-90
2023/09/28 08:11:48;;;;;;;18.25;3.55;;;19.10;99.90;;;;;;6121463;23;20370;-94
2023/09/28 08:14:15;;;;;;;18.13;3.40;;;19.00;99.90;;;;;;6121604;23;20367;-95
2023/09/28 08:16:59;;;;;;;19.08;2.90;;;19.50;99.90;;;;;;6113271;23;20409;-94
2023/09/28 08:19:24;;;;;;;17.83;2.90;;;19.50;99.90;;;;;;6126701;23;20381;-95
2023/09/28 08:21:50;;;;;;;19.33;3.53;;;19.30;99.90;;;;;;6126660;23;20913;-93
2023/09/28 08:24:16;;;;;;;21.90;2.78;;;19.50;99.90;;;;;;6150646;23;20890;-93
2023/09/28 08:26:42;;;;;;;21.63;3.45;;;19.30;99.90;;;;;;6126406;23;20797;-94
2023/09/28 08:29:08;;;;;;;18.95;3.03;;;19.60;99.90;;;;;;6126168;23;20884;-93
2023/09/28 08:31:33;;;;;;;19.63;3.97;;;20.20;99.90;;;;;;6126679;23;20369;-94
2023/09/28 08:34:00;;;;;;;19.30;3.45;;;19.50;99.90;;;;;;6127863;23;20421;-94
2023/09/28 08:36:29;;;;;;;16.13;2.80;;;19.60;99.90;;;;;;6129028;23;20365;-92
2023/09/28 08:38:55;;;;;;;16.15;2.90;;;19.60;99.90;;;;;;6128183;23;20456;-93
2023/09/28 08:41:30;;;;;;;18.33;2.93;;;19.60;99.90;;;;;;6127881;23;20784;-94
2023/09/28 08:44:08;;;;;;;16.15;2.50;;;19.80;99.90;;;;;;6128092;23;20388;-92
2023/09/28 08:46:38;;;;;;;13.18;2.08;;;19.90;99.90;;;;;;6152865;23;20456;-94
2023/09/28 08:49:05;;;;;;;15.68;2.60;;;19.80;99.90;;;;;;6128315;23;20400;-95
2023/09/28 08:51:33;;;;;;;14.93;2.55;;;20.00;99.90;;;;;;6127969;23;20373;-92
2023/09/28 08:54:00;;;;;;;13.17;2.20;;;19.90;99.90;;;;;;6128580;23;20977;-93
2023/09/28 08:56:27;;;;;;;15.23;2.25;;;19.60;99.90;;;;;;6127731;23;20369;-92
2023/09/28 08:58:54;;;;;;;16.77;2.67;;;19.60;99.90;;;;;;6152511;23;20451;-93
2023/09/28 09:01:20;;;;;;;14.43;2.78;;;19.70;99.90;;;;;;6153230;23;20369;-93
2023/09/28 09:03:47;;;;;;;13.98;2.40;;;19.90;99.90;;;;;;6127759;23;20373;-95
2023/09/28 09:06:13;;;;;;;15.37;2.47;;;20.10;99.90;;;;;;6131257;23;20809;-92
2023/09/28 09:08:45;;;;;;;15.27;2.23;;;20.10;99.90;;;;;;6127974;23;20457;-94
2023/09/28 09:11:16;;;;;;;16.60;2.58;;;20.00;99.90;;;;;;6127766;23;20405;-95
2023/09/28 09:13:49;;;;;;;12.80;2.38;;;19.60;99.90;;;;;;6127529;23;20397;-92
2023/09/28 09:16:16;;;;;;;22.02;2.95;;;19.80;99.90;;;;;;6122763;23;20414;-93
2023/09/28 09:18:44;;;;;;;16.85;3.75;;;20.00;99.90;;;;;;6123433;23;20378;-93
2023/09/28 09:21:10;;;;;;;20.30;3.55;;;19.90;99.90;;;;;;6123986;23;20375;-93
2023/09/28 09:23:36;;;;;;;24.50;3.42;;;19.60;99.90;;;;;;6098044;23;20364;-93
2023/09/28 09:26:02;;;;;;;18.75;3.42;;;20.00;99.90;;;;;;6122161;23;20469;-94
2023/09/28 09:28:33;;;;;;;22.30;3.87;;;20.00;99.90;;;;;;6122550;23;20378;-94
2023/09/28 09:31:01;;;;;;;22.65;3.88;;;20.20;99.90;;;;;;6147700;23;20864;-93
2023/09/28 09:33:28;;;;;;;25.05;4.07;;;19.90;99.90;;;;;;6123363;23;20387;-92
2023/09/28 09:35:54;;;;;;;21.48;4.07;;;20.20;99.90;;;;;;6122840;23;20848;-94
2023/09/28 09:38:29;;;;;;;20.10;4.27;;;20.10;99.90;;;;;;6122959;23;20386;-93
2023/09/28 09:41:01;;;;;;;18.02;4.00;;;20.40;99.90;;;;;;6148558;23;20412;-93
2023/09/28 09:43:35;;;;;;;19.63;3.83;;;20.30;99.90;;;;;;6121996;23;20379;-94
2023/09/28 09:46:05;;;;;;;23.10;3.58;;;20.30;99.90;;;;;;6098201;23;20843;-94
2023/09/28 09:48:42;;;;;;;21.33;3.05;;;20.60;99.90;;;;;;6122649;23;20474;-93
2023/09/28 09:51:15;;;;;;;21.10;3.97;;;20.40;99.90;;;;;;6097220;23;20407;-93
2023/09/28 09:53:43;;;;;;;21.92;3.90;;;20.50;99.90;;;;;;6123840;23;20406;-92
2023/09/28 09:56:10;;;;;;;19.75;3.53;;;20.80;99.90;;;;;;6121971;23;20700;-93
2023/09/28 09:58:48;;;;;;;20.45;3.28;;;20.60;99.90;;;;;;6124304;23;20363;-93
2023/09/28 10:01:15;;;;;;;18.05;3.17;;;20.60;99.90;;;;;;6149421;23;20540;-94
2023/09/28 10:03:50;;;;;;;20.45;3.60;;;20.90;99.90;;;;;;6125083;23;20751;-93
2023/09/28 10:06:17;;;;;;;16.27;2.92;;;20.50;99.90;;;;;;6124150;23;20375;-92
2023/09/28 10:08:45;;;;;;;18.58;3.50;;;20.70;99.90;;;;;;6097354;23;20509;-95
2023/09/28 10:11:12;;;;;;;16.35;2.90;;;20.90;99.90;;;;;;6122913;23;20403;-95
2023/09/28 10:13:39;;;;;;;18.77;2.95;;;20.40;99.90;;;;;;6121528;23;20465;-94
2023/09/28 10:16:09;;;;;;;16.95;3.00;;;20.80;99.90;;;;;;6101975;23;20395;-94
2023/09/28 10:18:36;;;;;;;20.65;3.42;;;20.50;99.90;;;;;;6128999;23;20738;-94
2023/09/28 10:21:03;;;;;;;19.95;3.08;;;20.80;99.90;;;;;;6151369;23;20369;-93
2023/09/28 10:23:29;;;;;;;16.52;2.88;;;20.90;99.90;;;;;;6150823;23;20385;-95
2023/09/28 10:26:16;;;;;;;19.95;3.58;;;20.50;99.90;;;;;;6151128;23;20370;-92
2023/09/28 10:29:02;;;;;;;14.55;2.83;;;20.50;99.90;;;;;;6152386;23;20384;-93
2023/09/28 10:31:36;;;;;;;20.73;3.60;;;20.50;99.90;;;;;;6151428;23;20413;-94
2023/09/28 10:34:06;;;;;;;20.27;3.38;;;20.40;99.90;;;;;;6151199;23;20459;-95
2023/09/28 10:36:39;;;;;;;16.48;2.63;;;20.60;99.90;;;;;;6151193;23;20386;-94
2023/09/28 10:39:14;;;;;;;13.93;2.53;;;20.40;99.90;;;;;;6151000;23;20776;-94
2023/09/28 10:41:50;;;;;;;17.30;3.10;;;20.30;99.90;;;;;;6126564;23;20432;-93
2023/09/28 10:44:17;;;;;;;17.08;3.10;;;20.30;99.90;;;;;;6151070;23;20376;-92
2023/09/28 10:46:47;;;;;;;19.33;3.00;;;20.50;99.90;;;;;;6151413;23;20416;-94
2023/09/28 10:49:28;;;;;;;18.00;2.97;;;20.40;99.90;;;;;;6150897;23;20487;-94
2023/09/28 10:51:57;;;;;;;18.05;3.08;;;20.50;99.90;;;;;;6150893;23;20723;-93
2023/09/28 10:54:24;;;;;;;18.17;3.53;;;20.50;99.90;;;;;;6151274;23;20369;-94
2023/09/28 10:56:51;;;;;;;16.17;2.92;;;20.60;99.90;;;;;;6125650;23;20440;-92
2023/09/28 10:59:28;;;;;;;17.55;2.92;;;20.60;99.90;;;;;;6151457;23;20372;-94
2023/09/28 11:01:54;;;;;;;20.05;3.28;;;21.00;99.90;;;;;;6151283;23;20385;-94
2023/09/28 11:04:22;;;;;;;16.70;3.13;;;20.80;99.90;;;;;;6126902;23;20370;-94
2023/09/28 11:06:49;;;;;;;17.33;2.75;;;20.40;99.90;;;;;;6151040;23;20400;-95
2023/09/28 11:09:19;;;;;;;13.55;1.98;;;21.10;99.90;;;;;;6151699;23;20396;-94
2023/09/28 11:11:45;;;;;;;17.02;2.83;;;20.50;99.90;;;;;;6126752;23;20799;-94
2023/09/28 11:14:11;;;;;;;16.50;2.40;;;20.50;99.90;;;;;;6125588;23;20376;-94
2023/09/28 11:16:42;;;;;;;18.70;3.13;;;20.40;99.90;;;;;;6151764;23;20475;-93
2023/09/28 11:19:11;;;;;;;17.70;3.17;;;20.50;99.90;;;;;;6152391;23;20456;-92
2023/09/28 11:21:37;;;;;;;18.88;2.95;;;20.20;99.90;;;;;;6126532;23;20416;-93
2023/09/28 11:24:03;;;;;;;16.65;3.20;;;20.40;99.90;;;;;;6150323;23;20381;-93
2023/09/28 11:26:30;;;;;;;17.58;3.15;;;20.60;99.90;;;;;;6126312;23;20374;-93
2023/09/28 11:28:57;;;;;;;18.35;3.13;;;21.00;99.90;;;;;;6150238;23;20389;-93
2023/09/28 11:31:23;;;;;;;16.70;3.20;;;20.70;99.90;;;;;;6145010;23;20706;-94
2023/09/28 11:33:49;;;;;;;18.42;2.90;;;21.00;99.90;;;;;;6150262;23;20370;-93
2023/09/28 11:36:22;;;;;;;20.70;3.17;;;20.70;99.90;;;;;;6149651;23;20377;-92
2023/09/28 11:38:52;;;;;;;15.10;3.10;;;20.90;99.90;;;;;;6125957;23;20440;-94
2023/09/28 11:41:18;;;;;;;17.98;2.67;;;20.90;99.90;;;;;;6150771;23;20473;-94
2023/09/28 11:43:48;;;;;;;19.05;2.83;;;21.00;99.90;;;;;;6150307;23;20398;-93
2023/09/28 11:46:25;;;;;;;15.53;3.03;;;20.80;99.90;;;;;;6151569;23;20420;-94
2023/09/28 11:49:11;;;;;;;14.90;2.60;;;20.80;99.90;;;;;;6150529;23;20710;-93
2023/09/28 11:51:38;;;;;;;17.77;2.92;;;20.70;99.90;;;;;;6151064;23;20384;-94
2023/09/28 11:54:18;;;;;;;16.58;3.35;;;20.80;99.90;;;;;;6149916;23;20679;-93
2023/09/28 11:56:44;;;;;;;16.58;3.08;;;20.70;99.90;;;;;;6153122;23;20412;-95
2023/09/28 11:59:14;;;;;;;17.60;3.40;;;20.20;99.90;;;;;;6152023;23;20765;-94
2023/09/28 12:01:39;;;;;;;20.83;3.90;;;20.60;99.90;;;;;;6150596;23;20365;-92
2023/09/28 12:04:06;;;;;;;17.63;3.35;;;20.30;99.90;;;;;;6150521;23;20366;-94
2023/09/28 12:06:32;;;;;;;17.50;3.17;;;20.70;99.90;;;;;;6125099;23;20374;-93
2023/09/28 12:08:58;;;;;;;15.80;3.78;;;20.60;99.90;;;;;;6150342;23;20567;-94
2023/09/28 12:11:24;;;;;;;17.15;3.25;;;20.70;99.90;;;;;;6152012;23;20373;-93
2023/09/28 12:13:50;;;;;;;18.80;3.53;;;20.70;99.90;;;;;;6126372;23;20740;-93
2023/09/28 12:16:16;;;;;;;15.25;3.20;;;20.50;99.90;;;;;;6127720;23;20870;-91
2023/09/28 12:18:42;;;;;;;17.65;2.80;;;20.40;99.90;;;;;;6125976;23;20916;-93
2023/09/28 12:21:07;;;;;;;15.75;2.85;;;20.20;99.90;;;;;;6151564;23;20459;-92
2023/09/28 12:23:33;;;;;;;14.93;3.10;;;20.10;99.90;;;;;;6126632;23;20452;-94
2023/09/28 12:26:01;;;;;;;15.45;3.05;;;20.00;99.90;;;;;;6150661;23;20535;-94
2023/09/28 12:28:27;;;;;;;17.33;3.10;;;19.90;99.90;;;;;;6125745;23;20366;-93
2023/09/28 12:30:53;;;;;;;19.75;3.05;;;20.00;99.90;;;;;;6126084;23;20404;-92
2023/09/28 12:33:19;;;;;;;15.67;2.87;;;20.10;99.90;;;;;;6126763;23;20760;-94
2023/09/28 12:35:47;;;;;;;16.67;3.25;;;19.90;99.90;;;;;;6126432;23;20378;-93
2023/09/28 12:38:12;;;;;;;14.47;3.17;;;19.80;99.90;;;;;;6149751;23;20391;-94
2023/09/28 12:40:38;;;;;;;16.95;3.10;;;20.20;99.90;;;;;;6126562;23;20393;-94
2023/09/28 12:43:05;;;;;;;17.33;2.97;;;20.40;99.90;;;;;;6125960;23;20738;-94